createdAt,value
2023-01-23T00:01:57.120Z,31.50
2023-01-23T00:04:30.853Z,28.67
2023-01-23T00:07:04.472Z,31.60
2023-01-23T00:09:37.840Z,30.00
2023-01-23T00:12:11.501Z,31.07
2023-01-23T00:14:45.415Z,25.77
2023-01-23T00:17:19.012Z,27.87
2023-01-23T00:19:55.281Z,30.25
2023-01-23T00:22:28.761Z,32.45
2023-01-23T00:25:02.265Z,36.33
2023-01-23T00:27:35.942Z,29.48
2023-01-23T00:30:13.799Z,34.75
2023-01-23T00:32:47.380Z,24.23
2023-01-23T00:35:21.058Z,28.65
2023-01-23T00:37:54.648Z,39.08
2023-01-23T00:40:27.995Z,34.98
2023-01-23T00:43:01.467Z,33.70
2023-01-23T00:45:35.968Z,39.85
2023-01-23T00:48:10.236Z,32.28
2023-01-23T00:50:44.066Z,35.55
2023-01-23T00:53:17.490Z,35.70
2023-01-23T00:55:51.040Z,38.08
2023-01-23T00:58:24.662Z,35.25
2023-01-23T01:00:58.264Z,39.60
2023-01-23T01:03:31.712Z,40.65
2023-01-23T01:06:05.409Z,42.65
2023-01-23T01:08:39.141Z,42.35
2023-01-23T01:11:12.526Z,43.40
2023-01-23T01:13:46.832Z,28.23
2023-01-23T01:16:20.646Z,38.65
2023-01-23T01:18:54.800Z,40.88
2023-01-23T01:21:28.625Z,42.03
2023-01-23T01:24:02.358Z,39.18
2023-01-23T01:26:36.136Z,32.83
2023-01-23T01:29:09.794Z,39.03
2023-01-23T01:31:43.287Z,41.18
2023-01-23T01:34:16.598Z,35.25
2023-01-23T01:36:50.203Z,33.23
2023-01-23T01:39:24.851Z,38.80
2023-01-23T01:41:58.475Z,37.67
2023-01-23T01:44:51.345Z,38.92
2023-01-23T01:47:24.777Z,33.67
2023-01-23T01:50:01.019Z,39.70
2023-01-23T01:52:35.182Z,39.47
2023-01-23T01:55:11.058Z,38.50
2023-01-23T01:57:48.374Z,35.23
2023-01-23T02:00:22.951Z,40.75
2023-01-23T02:02:59.086Z,35.98
2023-01-23T02:05:35.183Z,35.45
2023-01-23T02:08:13.308Z,44.27
2023-01-23T02:10:48.523Z,40.40
2023-01-23T02:13:28.287Z,46.10
2023-01-23T02:16:03.846Z,37.53
2023-01-23T02:18:41.544Z,37.13
2023-01-23T02:21:18.516Z,29.15
2023-01-23T02:24:00.382Z,32.00
2023-01-23T02:26:36.856Z,31.20
2023-01-23T02:29:11.410Z,23.18
2023-01-23T02:31:50.869Z,35.55
2023-01-23T02:34:26.194Z,37.67
2023-01-23T02:37:01.987Z,43.20
2023-01-23T02:39:35.513Z,28.17
2023-01-23T02:42:09.820Z,27.35
2023-01-23T02:44:52.596Z,30.05
2023-01-23T02:47:26.843Z,29.65
2023-01-23T02:50:01.674Z,26.80
2023-01-23T02:52:35.138Z,28.62
2023-01-23T02:55:11.181Z,17.65
2023-01-23T02:57:45.285Z,20.85
2023-01-23T03:00:22.497Z,29.27
2023-01-23T03:02:56.949Z,23.10
2023-01-23T03:05:30.722Z,23.25
2023-01-23T03:08:04.434Z,17.92
2023-01-23T03:10:38.131Z,21.90
2023-01-23T03:13:12.218Z,27.93
2023-01-23T03:15:45.743Z,21.90
2023-01-23T03:18:19.086Z,25.80
2023-01-23T03:20:52.469Z,22.30
2023-01-23T03:23:25.671Z,25.90
2023-01-23T03:26:00.734Z,26.50
2023-01-23T03:29:03.697Z,26.23
2023-01-23T03:31:37.236Z,24.67
2023-01-23T03:34:11.472Z,22.37
2023-01-23T03:36:45.081Z,24.18
2023-01-23T03:39:36.533Z,27.45
2023-01-23T03:42:09.886Z,25.50
2023-01-23T03:44:43.517Z,21.37
2023-01-23T03:47:17.137Z,15.58
2023-01-23T03:49:50.824Z,21.10
2023-01-23T03:52:25.065Z,22.77
2023-01-23T03:54:59.145Z,26.68
2023-01-23T03:57:33.905Z,19.57
2023-01-23T04:00:13.157Z,20.88
2023-01-23T04:02:51.220Z,19.65
2023-01-23T04:05:24.941Z,23.30
2023-01-23T04:07:58.539Z,22.58
2023-01-23T04:10:32.276Z,29.00
2023-01-23T04:13:07.826Z,22.07
2023-01-23T04:15:41.346Z,22.95
2023-01-23T04:18:15.020Z,26.20
2023-01-23T04:20:48.990Z,17.25
2023-01-23T04:23:23.109Z,20.37
2023-01-23T04:25:56.599Z,22.93
2023-01-23T04:28:30.119Z,19.23
2023-01-23T04:31:04.302Z,23.42
2023-01-23T04:33:39.547Z,29.82
2023-01-23T04:36:13.825Z,24.98
2023-01-23T04:38:47.395Z,26.00
2023-01-23T04:41:24.144Z,26.15
2023-01-23T04:44:02.350Z,25.60
2023-01-23T04:46:37.103Z,24.55
2023-01-23T04:49:12.141Z,15.65
2023-01-23T04:51:46.074Z,20.62
2023-01-23T04:54:20.814Z,18.85
2023-01-23T04:56:54.176Z,25.45
2023-01-23T04:59:27.892Z,21.50
2023-01-23T05:02:02.494Z,23.15
2023-01-23T05:04:37.748Z,24.12
2023-01-23T05:07:12.432Z,23.40
2023-01-23T05:09:47.508Z,23.40
2023-01-23T05:12:21.320Z,23.92
2023-01-23T05:14:54.867Z,23.85
2023-01-23T05:17:28.352Z,24.23
2023-01-23T05:20:01.515Z,22.80
2023-01-23T05:22:34.934Z,27.87
2023-01-23T05:25:10.389Z,21.07
2023-01-23T05:27:44.522Z,30.65
2023-01-23T05:30:20.026Z,24.80
2023-01-23T05:32:55.350Z,26.30
2023-01-23T05:35:28.937Z,23.87
2023-01-23T05:38:03.555Z,28.10
2023-01-23T05:40:37.827Z,28.47
2023-01-23T05:43:21.735Z,26.33
2023-01-23T05:46:09.056Z,26.33
2023-01-23T05:48:44.004Z,24.27
2023-01-23T05:51:17.655Z,25.52
2023-01-23T05:53:51.193Z,24.15
2023-01-23T05:56:24.655Z,27.27
2023-01-23T05:59:12.365Z,20.30
2023-01-23T06:01:47.338Z,22.27
2023-01-23T06:04:38.911Z,20.75
2023-01-23T06:07:17.854Z,20.95
2023-01-23T06:09:51.669Z,26.57
2023-01-23T06:12:26.013Z,22.00
2023-01-23T06:14:59.499Z,23.83
2023-01-23T06:17:34.007Z,25.60
2023-01-23T06:20:09.354Z,29.37
2023-01-23T06:22:44.608Z,24.85
2023-01-23T06:25:21.425Z,27.85
2023-01-23T06:27:55.334Z,30.72
2023-01-23T06:30:30.735Z,27.58
2023-01-23T06:33:04.528Z,27.20
2023-01-23T06:35:39.569Z,31.15
2023-01-23T06:38:13.150Z,25.35
2023-01-23T06:40:47.620Z,29.85
2023-01-23T06:43:25.450Z,25.62
2023-01-23T06:45:59.716Z,31.68
2023-01-23T06:48:33.182Z,25.05
2023-01-23T06:51:07.613Z,22.30
2023-01-23T06:53:41.134Z,28.35
2023-01-23T06:56:15.540Z,17.62
2023-01-23T06:58:49.759Z,22.22
2023-01-23T07:01:26.591Z,19.55
2023-01-23T07:04:17.845Z,22.42
2023-01-23T07:06:53.111Z,23.30
2023-01-23T07:09:26.893Z,16.05
2023-01-23T07:12:04.708Z,24.00
2023-01-23T07:14:39.016Z,29.80
2023-01-23T07:17:14.199Z,20.20
2023-01-23T07:19:47.798Z,21.15
2023-01-23T07:22:23.761Z,24.80
2023-01-23T07:24:57.511Z,23.92
2023-01-23T07:27:31.157Z,21.17
2023-01-23T07:30:06.028Z,28.47
2023-01-23T07:32:39.502Z,23.90
2023-01-23T07:35:13.641Z,22.10
2023-01-23T07:37:47.054Z,27.40
2023-01-23T07:40:21.448Z,24.37
2023-01-23T07:42:55.154Z,18.00
2023-01-23T07:45:28.834Z,21.30
2023-01-23T07:48:02.386Z,24.72
2023-01-23T07:50:37.820Z,30.08
2023-01-23T07:53:11.739Z,23.57
2023-01-23T07:55:45.578Z,26.93
2023-01-23T07:58:19.029Z,26.77
2023-01-23T08:00:52.586Z,17.10
2023-01-23T08:03:28.163Z,18.07
2023-01-23T08:06:02.324Z,19.73
2023-01-23T08:08:36.107Z,22.60
2023-01-23T08:11:12.028Z,21.23
2023-01-23T08:16:37.520Z,25.25
2023-01-23T08:19:11.194Z,22.73
2023-01-23T08:21:45.575Z,21.80
2023-01-23T08:24:19.113Z,22.60
2023-01-23T08:26:53.057Z,22.93
2023-01-23T08:29:26.633Z,19.10
2023-01-23T08:32:00.832Z,18.05
2023-01-23T08:34:34.422Z,22.22
2023-01-23T08:37:07.975Z,21.50
2023-01-23T08:39:42.162Z,19.07
2023-01-23T08:42:15.510Z,10.65
2023-01-23T08:44:49.016Z,17.12
2023-01-23T08:47:22.617Z,12.55
2023-01-23T08:49:55.956Z,21.23
2023-01-23T08:52:29.662Z,22.52
2023-01-23T08:55:05.078Z,26.45
2023-01-23T08:57:37.922Z,21.90
2023-01-23T09:02:52.580Z,21.62
2023-01-23T09:05:26.033Z,26.17
2023-01-23T09:08:00.548Z,20.45
2023-01-23T09:10:34.074Z,20.43
2023-01-23T09:13:07.747Z,23.25
2023-01-23T09:15:42.219Z,20.25
2023-01-23T09:18:15.852Z,19.07
2023-01-23T09:20:49.655Z,23.25
2023-01-23T09:23:23.614Z,23.40
2023-01-23T09:25:56.887Z,19.45
2023-01-23T09:28:30.538Z,19.57
2023-01-23T09:31:07.985Z,26.15
2023-01-23T09:33:41.936Z,20.02
2023-01-23T09:36:15.605Z,23.55
2023-01-23T09:38:50.752Z,21.12
2023-01-23T09:41:28.344Z,22.70
2023-01-23T09:46:39.572Z,21.42
2023-01-23T09:49:16.805Z,26.35
2023-01-23T09:51:54.660Z,16.30
2023-01-23T09:54:40.940Z,24.72
2023-01-23T09:57:21.103Z,19.98
2023-01-23T09:59:59.946Z,20.88
2023-01-23T10:02:35.687Z,19.02
2023-01-23T10:05:14.022Z,14.18
2023-01-23T10:07:53.959Z,21.50
2023-01-23T10:10:52.209Z,19.40
2023-01-23T10:13:37.812Z,22.45
2023-01-23T10:16:19.372Z,17.98
2023-01-23T10:18:57.112Z,17.30
2023-01-23T10:24:08.587Z,21.45
2023-01-23T10:29:18.692Z,17.02
2023-01-23T10:31:55.909Z,19.27
2023-01-23T10:34:34.941Z,22.95
2023-01-23T10:37:15.257Z,15.72
2023-01-23T10:39:52.205Z,14.25
2023-01-23T10:42:28.293Z,18.30
2023-01-23T10:45:01.716Z,20.70
2023-01-23T10:47:38.826Z,23.83
2023-01-23T10:52:47.855Z,20.20
2023-01-23T10:55:32.562Z,23.35
2023-01-23T10:58:07.045Z,17.80
2023-01-23T11:03:34.561Z,21.33
2023-01-23T11:06:09.882Z,21.50
2023-01-23T11:08:46.668Z,28.50
2023-01-23T11:11:26.657Z,24.20
2023-01-23T11:14:10.586Z,21.85
2023-01-23T11:16:44.759Z,24.50
2023-01-23T11:19:22.952Z,23.10
2023-01-23T11:21:59.224Z,17.70
2023-01-23T11:24:40.697Z,28.45
2023-01-23T11:27:23.754Z,19.37
2023-01-23T11:30:16.584Z,24.82
2023-01-23T11:32:55.512Z,26.50
2023-01-23T11:35:33.344Z,25.88
2023-01-23T11:38:07.845Z,21.33
2023-01-23T11:40:41.368Z,31.42
2023-01-23T11:43:17.865Z,27.20
2023-01-23T11:46:01.910Z,27.80
2023-01-23T11:49:00.464Z,23.00
2023-01-23T11:51:38.672Z,23.52
2023-01-23T11:54:19.150Z,27.50
2023-01-23T11:57:04.450Z,31.40
2023-01-23T12:03:30.341Z,28.42
2023-01-23T12:06:21.258Z,27.73
2023-01-23T12:08:58.680Z,33.88
2023-01-23T12:11:35.979Z,34.85
2023-01-23T12:14:16.471Z,29.95
2023-01-23T12:23:28.093Z,31.87
2023-01-23T12:26:07.226Z,27.55
2023-01-23T12:28:56.205Z,31.70
2023-01-23T12:31:41.354Z,29.77
2023-01-23T12:34:53.828Z,28.05
2023-01-23T12:37:47.916Z,28.83
2023-01-23T12:40:24.724Z,25.35
2023-01-23T12:43:01.862Z,20.43
2023-01-23T12:45:35.825Z,24.12
2023-01-23T12:48:12.927Z,28.02
2023-01-23T12:50:49.496Z,25.35
2023-01-23T12:53:24.387Z,22.62
2023-01-23T12:56:02.136Z,31.97
2023-01-23T13:01:16.981Z,29.12
2023-01-23T13:04:08.502Z,29.15
2023-01-23T13:07:12.575Z,26.90
2023-01-23T13:09:53.796Z,37.23
2023-01-23T13:12:29.862Z,32.28
2023-01-23T13:15:39.622Z,26.97
2023-01-23T13:18:06.521Z,26.50
2023-01-23T13:21:00.146Z,27.50
2023-01-23T13:23:35.359Z,29.82
2023-01-23T13:29:48.183Z,33.95
2023-01-23T13:32:24.744Z,23.38
2023-01-23T13:34:58.531Z,28.42
2023-01-23T13:37:53.437Z,38.42
2023-01-23T13:40:27.791Z,28.92
2023-01-23T13:43:02.655Z,15.85
2023-01-23T13:45:36.996Z,29.95
2023-01-23T13:49:05.903Z,30.55
2023-01-23T13:51:40.073Z,24.57
2023-01-23T13:54:35.533Z,20.85
2023-01-23T13:57:09.396Z,27.07
2023-01-23T13:59:46.816Z,22.48
2023-01-23T14:02:44.442Z,21.60
2023-01-23T14:05:22.588Z,21.12
2023-01-23T14:08:02.693Z,22.65
2023-01-23T14:10:37.691Z,21.37
2023-01-23T14:13:13.357Z,18.00
2023-01-23T14:16:09.583Z,24.90
2023-01-23T14:18:48.960Z,24.67
2023-01-23T14:21:30.415Z,25.68
2023-01-23T14:24:04.071Z,23.20
2023-01-23T14:26:37.958Z,26.95
2023-01-23T14:29:22.391Z,25.72
2023-01-23T14:31:56.202Z,28.27
2023-01-23T14:34:30.222Z,22.35
2023-01-23T14:37:06.203Z,25.80
2023-01-23T14:39:44.018Z,26.27
2023-01-23T14:42:23.679Z,26.95
2023-01-23T14:44:58.240Z,27.42
2023-01-23T14:47:35.270Z,24.98
2023-01-23T14:50:12.066Z,26.17
2023-01-23T14:52:45.534Z,19.23
2023-01-23T14:55:30.150Z,22.50
2023-01-23T14:58:05.172Z,20.27
2023-01-23T15:00:39.677Z,23.27
2023-01-23T15:03:17.233Z,22.07
2023-01-23T15:06:00.220Z,19.98
2023-01-23T15:08:36.176Z,21.30
2023-01-23T15:11:12.328Z,24.82
2023-01-23T15:13:50.560Z,23.98
2023-01-23T15:16:26.374Z,23.20
2023-01-23T15:19:05.533Z,24.30
2023-01-23T15:21:41.092Z,22.95
2023-01-23T15:24:24.657Z,24.47
2023-01-23T15:27:08.813Z,26.15
2023-01-23T15:29:42.296Z,22.75
2023-01-23T15:32:22.698Z,20.00
2023-01-23T15:34:59.307Z,19.32
2023-01-23T15:37:34.738Z,21.33
2023-01-23T15:40:19.657Z,18.42
2023-01-23T15:43:08.180Z,18.00
2023-01-23T15:45:41.705Z,22.10
2023-01-23T15:48:15.061Z,13.75
2023-01-23T15:50:48.807Z,16.65
2023-01-23T15:53:22.102Z,14.78
2023-01-23T15:55:55.501Z,18.23
2023-01-23T15:58:29.021Z,15.85
2023-01-23T16:01:02.433Z,12.40
2023-01-23T16:03:35.945Z,16.32
2023-01-23T16:06:14.972Z,12.23
2023-01-23T16:08:55.049Z,14.78
2023-01-23T16:11:23.633Z,17.27
2023-01-23T16:13:56.909Z,12.98
2023-01-23T16:16:31.217Z,13.50
2023-01-23T16:19:04.686Z,11.60
2023-01-23T16:21:38.029Z,18.30
2023-01-23T16:24:18.452Z,13.30
2023-01-23T16:26:54.428Z,18.10
2023-01-23T16:29:30.123Z,16.90
2023-01-23T16:32:04.876Z,17.67
2023-01-23T16:34:38.391Z,15.32
2023-01-23T16:37:16.583Z,17.60
2023-01-23T16:39:50.029Z,15.58
2023-01-23T16:42:25.180Z,13.72
2023-01-23T16:44:58.827Z,19.12
2023-01-23T16:47:33.890Z,18.70
2023-01-23T16:50:10.994Z,15.13
2023-01-23T16:52:46.881Z,14.03
2023-01-23T16:55:23.982Z,25.90
2023-01-23T16:57:59.332Z,19.70
2023-01-23T17:00:34.990Z,18.25
2023-01-23T17:03:10.423Z,20.80
2023-01-23T17:05:43.678Z,22.82
2023-01-23T17:08:21.004Z,19.40
2023-01-23T17:10:57.380Z,21.02
2023-01-23T17:13:34.037Z,16.82
2023-01-23T17:16:25.413Z,26.23
2023-01-23T17:18:44.959Z,21.82
2023-01-23T17:21:21.676Z,20.37
2023-01-23T17:23:56.218Z,12.75
2023-01-23T17:26:29.588Z,19.92
2023-01-23T17:29:03.893Z,21.52
2023-01-23T17:31:37.974Z,21.55
2023-01-23T17:34:16.234Z,21.68
2023-01-23T17:36:50.015Z,22.10
2023-01-23T17:39:23.607Z,20.35
2023-01-23T17:41:57.341Z,25.25
2023-01-23T17:44:30.799Z,19.17
2023-01-23T17:47:04.648Z,17.70
2023-01-23T17:49:38.375Z,20.27
2023-01-23T17:52:14.591Z,23.02
2023-01-23T17:54:47.914Z,23.80
2023-01-23T17:57:21.286Z,20.77
2023-01-23T17:59:56.510Z,18.60
2023-01-23T18:02:30.505Z,18.20
2023-01-23T18:05:05.289Z,13.35
2023-01-23T18:07:52.156Z,15.65
2023-01-23T18:10:15.018Z,16.07
2023-01-23T18:12:51.893Z,17.15
2023-01-23T18:15:30.647Z,25.23
2023-01-23T18:18:12.634Z,19.10
2023-01-23T18:20:47.316Z,13.35
2023-01-23T18:23:21.841Z,18.55
2023-01-23T18:25:59.103Z,15.72
2023-01-23T18:28:35.492Z,20.32
2023-01-23T18:31:11.698Z,20.25
2023-01-23T18:33:55.435Z,14.10
2023-01-23T18:36:35.410Z,15.32
2023-01-23T18:39:35.757Z,22.40
2023-01-23T18:42:21.021Z,18.35
2023-01-23T18:44:57.741Z,20.20
2023-01-23T18:47:32.163Z,18.20
2023-01-23T18:50:07.602Z,24.30
2023-01-23T18:52:47.655Z,18.07
2023-01-23T18:55:28.467Z,15.03
2023-01-23T18:58:28.738Z,19.32
2023-01-23T19:01:05.615Z,16.52
2023-01-23T19:03:42.314Z,17.23
2023-01-23T19:06:22.367Z,22.55
2023-01-23T19:08:57.144Z,20.85
2023-01-23T19:11:35.375Z,20.25
2023-01-23T19:14:14.555Z,19.27
2023-01-23T19:16:51.186Z,19.98
2023-01-23T19:19:27.874Z,20.23
2023-01-23T19:22:04.476Z,18.67
2023-01-23T19:24:41.178Z,20.68
2023-01-23T19:27:20.278Z,17.73
2023-01-23T19:29:55.061Z,17.65
2023-01-23T19:32:29.615Z,17.12
2023-01-23T19:35:13.754Z,16.10
2023-01-23T19:37:39.947Z,16.27
2023-01-23T19:40:16.635Z,17.50
2023-01-23T19:42:58.644Z,18.15
2023-01-23T19:45:25.706Z,12.43
2023-01-23T19:47:59.219Z,16.97
2023-01-23T19:50:32.791Z,20.40
2023-01-23T19:53:06.700Z,16.57
2023-01-23T19:55:40.302Z,16.93
2023-01-23T19:58:14.196Z,18.40
2023-01-23T20:00:48.094Z,17.40
2023-01-23T20:03:21.822Z,19.62
2023-01-23T20:05:55.891Z,19.67
2023-01-23T20:08:29.348Z,18.52
2023-01-23T20:11:02.854Z,19.32
2023-01-23T20:13:36.285Z,17.87
2023-01-23T20:16:18.180Z,17.55
2023-01-23T20:18:53.625Z,22.05
2023-01-23T20:21:27.877Z,21.02
2023-01-23T20:24:01.433Z,24.65
2023-01-23T20:26:34.753Z,23.62
2023-01-23T20:29:10.261Z,25.55
2023-01-23T20:31:43.630Z,25.05
2023-01-23T20:34:16.968Z,26.35
2023-01-23T20:36:50.637Z,23.75
2023-01-23T20:39:24.265Z,21.37
2023-01-23T20:41:57.659Z,23.73
2023-01-23T20:44:31.378Z,20.00
2023-01-23T20:47:04.852Z,20.10
2023-01-23T20:49:38.449Z,23.32
2023-01-23T20:52:29.771Z,20.80
2023-01-23T20:55:03.286Z,26.77
2023-01-23T20:57:54.097Z,23.22
2023-01-23T21:00:27.825Z,17.70
2023-01-23T21:03:01.318Z,24.40
2023-01-23T21:05:34.987Z,20.90
2023-01-23T21:08:09.548Z,26.33
2023-01-23T21:10:43.283Z,16.52
2023-01-23T21:13:16.925Z,17.35
2023-01-23T21:16:00.747Z,22.67
2023-01-23T21:18:35.847Z,23.62
2023-01-23T21:21:12.214Z,22.48
2023-01-23T21:23:48.320Z,24.85
2023-01-23T21:26:23.432Z,19.20
2023-01-23T21:28:58.652Z,22.50
2023-01-23T21:31:34.101Z,21.73
2023-01-23T21:34:09.735Z,19.37
2023-01-23T21:36:45.269Z,22.77
2023-01-23T21:39:19.497Z,19.50
2023-01-23T21:41:53.079Z,20.72
2023-01-23T21:44:26.537Z,21.07
2023-01-23T21:47:00.141Z,23.57
2023-01-23T21:49:33.986Z,27.25
2023-01-23T21:52:08.074Z,27.27
2023-01-23T21:54:43.216Z,24.37
2023-01-23T21:57:16.687Z,19.57
2023-01-23T22:00:09.129Z,21.55
2023-01-23T22:02:44.708Z,20.50
2023-01-23T22:05:19.069Z,22.32
2023-01-23T22:07:52.830Z,20.82
2023-01-23T22:10:26.302Z,22.07
2023-01-23T22:12:59.636Z,27.70
2023-01-23T22:15:33.298Z,20.30
2023-01-23T22:18:06.922Z,23.83
2023-01-23T22:20:41.224Z,24.32
2023-01-23T22:23:14.796Z,25.30
2023-01-23T22:25:49.424Z,17.95
2023-01-23T22:28:23.336Z,16.90
2023-01-23T22:30:57.259Z,21.17
2023-01-23T22:33:40.166Z,15.63
2023-01-23T22:36:08.619Z,19.32
2023-01-23T22:38:42.101Z,23.35
2023-01-23T22:41:17.090Z,23.07
2023-01-23T22:43:55.180Z,21.55
2023-01-23T22:46:29.404Z,26.23
2023-01-23T22:49:02.777Z,19.40
2023-01-23T22:51:36.134Z,20.75
2023-01-23T22:54:09.552Z,20.15
2023-01-23T22:56:44.254Z,18.87
2023-01-23T22:59:17.603Z,19.27
2023-01-23T23:01:50.984Z,21.12
2023-01-23T23:04:24.397Z,21.02
2023-01-23T23:06:57.790Z,25.40
2023-01-23T23:09:31.527Z,18.70
2023-01-23T23:12:05.337Z,18.25
2023-01-23T23:14:39.867Z,23.42
2023-01-23T23:17:13.277Z,16.90
2023-01-23T23:19:46.690Z,19.00
2023-01-23T23:22:20.320Z,15.30
2023-01-23T23:24:53.661Z,15.72
2023-01-23T23:27:27.125Z,18.60
2023-01-23T23:30:00.818Z,18.75
2023-01-23T23:32:34.495Z,15.95
2023-01-23T23:35:10.416Z,13.90
2023-01-23T23:37:43.916Z,21.02
2023-01-23T23:40:18.038Z,22.70
2023-01-23T23:42:51.564Z,20.88
2023-01-23T23:45:25.319Z,21.73
2023-01-23T23:47:59.025Z,24.52
2023-01-23T23:50:33.350Z,17.30
2023-01-23T23:53:06.876Z,14.80
2023-01-23T23:55:40.402Z,19.75
2023-01-23T23:58:14.378Z,21.62
